sensor_id;sensor_type;location;lat;lon;timestamp;P1;durP1;ratioP1;P2;durP2;ratioP2
16039;SDS011;8124;48.634;8.120;2023-02-21T00:03:53;41.63;;;34.60;;
16039;SDS011;8124;48.634;8.120;2023-02-21T00:09:15;39.53;;;34.08;;
16039;SDS011;8124;48.634;8.120;2023-02-21T00:14:35;37.97;;;33.80;;
16039;SDS011;8124;48.634;8.120;2023-02-21T00:19:56;38.50;;;34.13;;
16039;SDS011;8124;48.634;8.120;2023-02-21T00:25:20;39.13;;;34.70;;
16039;SDS011;8124;48.634;8.120;2023-02-21T00:30:40;43.78;;;34.42;;
16039;SDS011;8124;48.634;8.120;2023-02-21T00:36:01;37.92;;;33.80;;
16039;SDS011;8124;48.634;8.120;2023-02-21T00:41:22;40.72;;;34.20;;
16039;SDS011;8124;48.634;8.120;2023-02-21T00:46:42;38.55;;;34.35;;
16039;SDS011;8124;48.634;8.120;2023-02-21T00:52:03;38.80;;;34.60;;
16039;SDS011;8124;48.634;8.120;2023-02-21T00:57:25;39.97;;;34.92;;
16039;SDS011;8124;48.634;8.120;2023-02-21T01:02:46;38.88;;;34.63;;
16039;SDS011;8124;48.634;8.120;2023-02-21T01:08:06;38.55;;;34.35;;
16039;SDS011;8124;48.634;8.120;2023-02-21T01:13:27;42.22;;;35.05;;
16039;SDS011;8124;48.634;8.120;2023-02-21T01:18:48;38.72;;;34.40;;
16039;SDS011;8124;48.634;8.120;2023-02-21T01:24:09;41.92;;;34.33;;
16039;SDS011;8124;48.634;8.120;2023-02-21T01:29:33;38.42;;;34.22;;
16039;SDS011;8124;48.634;8.120;2023-02-21T01:34:54;40.63;;;34.22;;
16039;SDS011;8124;48.634;8.120;2023-02-21T01:40:15;38.67;;;34.47;;
16039;SDS011;8124;48.634;8.120;2023-02-21T01:45:42;37.13;;;33.13;;
16039;SDS011;8124;48.634;8.120;2023-02-21T01:51:06;38.30;;;33.65;;
16039;SDS011;8124;48.634;8.120;2023-02-21T01:56:32;38.13;;;34.03;;
16039;SDS011;8124;48.634;8.120;2023-02-21T02:01:57;41.05;;;34.22;;
16039;SDS011;8124;48.634;8.120;2023-02-21T02:07:20;38.67;;;34.47;;
16039;SDS011;8124;48.634;8.120;2023-02-21T02:12:49;37.30;;;33.33;;
16039;SDS011;8124;48.634;8.120;2023-02-21T02:18:12;38.15;;;34.08;;
16039;SDS011;8124;48.634;8.120;2023-02-21T02:23:28;42.08;;;34.60;;
16039;SDS011;8124;48.634;8.120;2023-02-21T02:28:51;41.92;;;34.58;;
16039;SDS011;8124;48.634;8.120;2023-02-21T02:39:50;40.42;;;34.38;;
16039;SDS011;8124;48.634;8.120;2023-02-21T02:44:58;42.20;;;34.63;;
16039;SDS011;8124;48.634;8.120;2023-02-21T02:50:06;38.45;;;34.03;;
16039;SDS011;8124;48.634;8.120;2023-02-21T02:55:20;38.65;;;34.10;;
16039;SDS011;8124;48.634;8.120;2023-02-21T03:00:28;38.70;;;33.58;;
16039;SDS011;8124;48.634;8.120;2023-02-21T03:05:40;38.15;;;33.95;;
16039;SDS011;8124;48.634;8.120;2023-02-21T03:10:52;38.22;;;34.13;;
16039;SDS011;8124;48.634;8.120;2023-02-21T03:16:08;37.72;;;33.72;;
16039;SDS011;8124;48.634;8.120;2023-02-21T03:21:19;37.78;;;33.72;;
16039;SDS011;8124;48.634;8.120;2023-02-21T03:26:24;41.33;;;33.95;;
16039;SDS011;8124;48.634;8.120;2023-02-21T03:31:36;38.75;;;33.70;;
16039;SDS011;8124;48.634;8.120;2023-02-21T03:36:46;40.25;;;34.10;;
16039;SDS011;8124;48.634;8.120;2023-02-21T03:41:51;38.85;;;34.10;;
16039;SDS011;8124;48.634;8.120;2023-02-21T03:46:55;38.67;;;33.83;;
16039;SDS011;8124;48.634;8.120;2023-02-21T03:51:59;38.28;;;34.08;;
16039;SDS011;8124;48.634;8.120;2023-02-21T03:57:02;39.30;;;33.95;;
16039;SDS011;8124;48.634;8.120;2023-02-21T04:02:13;40.95;;;34.50;;
16039;SDS011;8124;48.634;8.120;2023-02-21T04:07:18;39.67;;;34.55;;
16039;SDS011;8124;48.634;8.120;2023-02-21T04:12:23;40.22;;;34.17;;
16039;SDS011;8124;48.634;8.120;2023-02-21T04:17:26;39.20;;;34.22;;
16039;SDS011;8124;48.634;8.120;2023-02-21T04:22:32;37.33;;;33.30;;
16039;SDS011;8124;48.634;8.120;2023-02-21T04:27:35;40.47;;;34.40;;
16039;SDS011;8124;48.634;8.120;2023-02-21T04:32:39;38.05;;;33.95;;
16039;SDS011;8124;48.634;8.120;2023-02-21T04:37:48;40.42;;;34.42;;
16039;SDS011;8124;48.634;8.120;2023-02-21T04:42:52;37.92;;;33.85;;
16039;SDS011;8124;48.634;8.120;2023-02-21T04:47:54;38.75;;;33.67;;
16039;SDS011;8124;48.634;8.120;2023-02-21T04:52:59;37.92;;;33.53;;
16039;SDS011;8124;48.634;8.120;2023-02-21T04:58:01;38.15;;;34.05;;
16039;SDS011;8124;48.634;8.120;2023-02-21T05:03:04;43.00;;;36.70;;
16039;SDS011;8124;48.634;8.120;2023-02-21T05:08:08;39.00;;;34.72;;
16039;SDS011;8124;48.634;8.120;2023-02-21T05:13:21;38.17;;;33.80;;
16039;SDS011;8124;48.634;8.120;2023-02-21T05:18:24;39.67;;;35.45;;
16039;SDS011;8124;48.634;8.120;2023-02-21T05:23:29;38.55;;;34.05;;
16039;SDS011;8124;48.634;8.120;2023-02-21T05:28:36;39.22;;;33.55;;
16039;SDS011;8124;48.634;8.120;2023-02-21T05:33:39;38.75;;;33.88;;
16039;SDS011;8124;48.634;8.120;2023-02-21T05:38:44;38.47;;;33.72;;
16039;SDS011;8124;48.634;8.120;2023-02-21T05:43:48;38.83;;;33.45;;
16039;SDS011;8124;48.634;8.120;2023-02-21T05:48:51;39.90;;;33.75;;
16039;SDS011;8124;48.634;8.120;2023-02-21T05:53:56;38.65;;;33.03;;
16039;SDS011;8124;48.634;8.120;2023-02-21T05:58:59;37.63;;;33.53;;
16039;SDS011;8124;48.634;8.120;2023-02-21T06:04:02;38.20;;;33.75;;
16039;SDS011;8124;48.634;8.120;2023-02-21T06:09:06;37.63;;;33.53;;
16039;SDS011;8124;48.634;8.120;2023-02-21T06:14:12;37.83;;;33.67;;
16039;SDS011;8124;48.634;8.120;2023-02-21T06:19:18;36.78;;;32.78;;
16039;SDS011;8124;48.634;8.120;2023-02-21T06:24:22;36.55;;;32.65;;
16039;SDS011;8124;48.634;8.120;2023-02-21T06:29:25;37.55;;;33.45;;
16039;SDS011;8124;48.634;8.120;2023-02-21T06:34:29;37.30;;;33.30;;
16039;SDS011;8124;48.634;8.120;2023-02-21T06:39:33;37.38;;;33.33;;
16039;SDS011;8124;48.634;8.120;2023-02-21T06:44:36;36.92;;;32.92;;
16039;SDS011;8124;48.634;8.120;2023-02-21T06:49:39;38.58;;;33.60;;
16039;SDS011;8124;48.634;8.120;2023-02-21T06:54:43;38.70;;;34.05;;
16039;SDS011;8124;48.634;8.120;2023-02-21T06:59:46;37.78;;;33.70;;
16039;SDS011;8124;48.634;8.120;2023-02-21T07:04:49;37.97;;;33.85;;
16039;SDS011;8124;48.634;8.120;2023-02-21T07:09:53;37.80;;;33.80;;
16039;SDS011;8124;48.634;8.120;2023-02-21T07:14:56;40.90;;;34.65;;
16039;SDS011;8124;48.634;8.120;2023-02-21T07:19:59;40.80;;;36.45;;
16039;SDS011;8124;48.634;8.120;2023-02-21T07:25:03;45.45;;;37.30;;
16039;SDS011;8124;48.634;8.120;2023-02-21T07:30:07;45.03;;;40.22;;
16039;SDS011;8124;48.634;8.120;2023-02-21T07:35:10;43.13;;;37.03;;
16039;SDS011;8124;48.634;8.120;2023-02-21T07:40:16;41.80;;;36.45;;
16039;SDS011;8124;48.634;8.120;2023-02-21T07:45:19;132.90;;;86.35;;
16039;SDS011;8124;48.634;8.120;2023-02-21T07:50:22;102.82;;;69.65;;
16039;SDS011;8124;48.634;8.120;2023-02-21T07:55:26;107.32;;;71.63;;
16039;SDS011;8124;48.634;8.120;2023-02-21T08:00:29;95.47;;;63.40;;
16039;SDS011;8124;48.634;8.120;2023-02-21T08:05:32;96.32;;;68.90;;
16039;SDS011;8124;48.634;8.120;2023-02-21T08:10:37;38.67;;;34.55;;
16039;SDS011;8124;48.634;8.120;2023-02-21T08:15:39;44.88;;;40.08;;
16039;SDS011;8124;48.634;8.120;2023-02-21T08:20:42;40.90;;;36.50;;
16039;SDS011;8124;48.634;8.120;2023-02-21T08:26:01;41.58;;;36.70;;
16039;SDS011;8124;48.634;8.120;2023-02-21T08:31:05;42.90;;;36.25;;
16039;SDS011;8124;48.634;8.120;2023-02-21T08:36:09;40.85;;;36.33;;
16039;SDS011;8124;48.634;8.120;2023-02-21T08:41:16;46.53;;;36.70;;
16039;SDS011;8124;48.634;8.120;2023-02-21T08:46:19;42.55;;;35.72;;
16039;SDS011;8124;48.634;8.120;2023-02-21T08:51:23;41.60;;;35.78;;
16039;SDS011;8124;48.634;8.120;2023-02-21T08:56:28;42.15;;;35.22;;
16039;SDS011;8124;48.634;8.120;2023-02-21T09:01:32;39.85;;;35.55;;
16039;SDS011;8124;48.634;8.120;2023-02-21T09:06:36;39.85;;;34.83;;
16039;SDS011;8124;48.634;8.120;2023-02-21T09:11:40;43.15;;;36.10;;
16039;SDS011;8124;48.634;8.120;2023-02-21T09:16:48;41.45;;;36.70;;
16039;SDS011;8124;48.634;8.120;2023-02-21T09:21:51;42.47;;;37.58;;
16039;SDS011;8124;48.634;8.120;2023-02-21T09:26:58;44.17;;;37.85;;
16039;SDS011;8124;48.634;8.120;2023-02-21T09:32:04;41.90;;;36.40;;
16039;SDS011;8124;48.634;8.120;2023-02-21T09:37:09;40.78;;;35.90;;
16039;SDS011;8124;48.634;8.120;2023-02-21T09:42:14;43.55;;;36.83;;
16039;SDS011;8124;48.634;8.120;2023-02-21T09:47:22;40.88;;;36.10;;
16039;SDS011;8124;48.634;8.120;2023-02-21T09:52:29;40.42;;;35.65;;
16039;SDS011;8124;48.634;8.120;2023-02-21T09:57:36;42.30;;;36.45;;
16039;SDS011;8124;48.634;8.120;2023-02-21T10:02:41;43.10;;;37.28;;
16039;SDS011;8124;48.634;8.120;2023-02-21T10:07:53;41.83;;;36.80;;
16039;SDS011;8124;48.634;8.120;2023-02-21T10:13:05;45.28;;;36.75;;
16039;SDS011;8124;48.634;8.120;2023-02-21T10:18:23;48.15;;;37.03;;
16039;SDS011;8124;48.634;8.120;2023-02-21T10:23:34;43.78;;;36.08;;
16039;SDS011;8124;48.634;8.120;2023-02-21T10:28:41;43.70;;;36.92;;
16039;SDS011;8124;48.634;8.120;2023-02-21T10:33:44;41.78;;;36.15;;
16039;SDS011;8124;48.634;8.120;2023-02-21T10:38:52;42.03;;;36.60;;
16039;SDS011;8124;48.634;8.120;2023-02-21T10:44:00;42.67;;;36.10;;
16039;SDS011;8124;48.634;8.120;2023-02-21T10:49:27;43.92;;;36.83;;
16039;SDS011;8124;48.634;8.120;2023-02-21T10:54:34;41.13;;;36.63;;
16039;SDS011;8124;48.634;8.120;2023-02-21T10:59:45;46.78;;;36.63;;
16039;SDS011;8124;48.634;8.120;2023-02-21T11:04:51;45.78;;;38.03;;
16039;SDS011;8124;48.634;8.120;2023-02-21T11:09:56;43.45;;;37.85;;
16039;SDS011;8124;48.634;8.120;2023-02-21T11:15:08;46.65;;;38.35;;
16039;SDS011;8124;48.634;8.120;2023-02-21T11:20:19;45.30;;;37.58;;
16039;SDS011;8124;48.634;8.120;2023-02-21T11:25:24;42.28;;;37.50;;
16039;SDS011;8124;48.634;8.120;2023-02-21T11:30:30;39.08;;;34.83;;
16039;SDS011;8124;48.634;8.120;2023-02-21T11:35:36;43.78;;;37.90;;
16039;SDS011;8124;48.634;8.120;2023-02-21T11:40:44;45.33;;;37.67;;
16039;SDS011;8124;48.634;8.120;2023-02-21T11:46:01;46.55;;;38.08;;
16039;SDS011;8124;48.634;8.120;2023-02-21T11:51:15;41.55;;;36.97;;
16039;SDS011;8124;48.634;8.120;2023-02-21T11:56:28;44.45;;;37.20;;
16039;SDS011;8124;48.634;8.120;2023-02-21T12:01:39;44.90;;;37.97;;
16039;SDS011;8124;48.634;8.120;2023-02-21T12:06:51;42.80;;;36.67;;
16039;SDS011;8124;48.634;8.120;2023-02-21T12:12:02;44.28;;;37.15;;
16039;SDS011;8124;48.634;8.120;2023-02-21T12:17:31;42.45;;;37.05;;
16039;SDS011;8124;48.634;8.120;2023-02-21T12:22:49;44.90;;;37.05;;
16039;SDS011;8124;48.634;8.120;2023-02-21T12:28:03;41.97;;;36.70;;
16039;SDS011;8124;48.634;8.120;2023-02-21T12:33:22;42.92;;;36.72;;
16039;SDS011;8124;48.634;8.120;2023-02-21T12:38:35;44.22;;;36.70;;
16039;SDS011;8124;48.634;8.120;2023-02-21T12:43:49;40.88;;;36.38;;
16039;SDS011;8124;48.634;8.120;2023-02-21T12:49:02;43.75;;;36.95;;
16039;SDS011;8124;48.634;8.120;2023-02-21T12:54:09;41.88;;;36.50;;
16039;SDS011;8124;48.634;8.120;2023-02-21T12:59:19;42.47;;;36.53;;
16039;SDS011;8124;48.634;8.120;2023-02-21T13:04:33;42.38;;;37.70;;
16039;SDS011;8124;48.634;8.120;2023-02-21T13:09:44;43.15;;;36.80;;
16039;SDS011;8124;48.634;8.120;2023-02-21T13:14:52;42.95;;;36.78;;
16039;SDS011;8124;48.634;8.120;2023-02-21T13:19:59;44.13;;;37.55;;
16039;SDS011;8124;48.634;8.120;2023-02-21T13:25:09;43.55;;;36.70;;
16039;SDS011;8124;48.634;8.120;2023-02-21T13:30:24;43.55;;;37.05;;
16039;SDS011;8124;48.634;8.120;2023-02-21T13:35:39;42.17;;;37.08;;
16039;SDS011;8124;48.634;8.120;2023-02-21T13:40:44;44.70;;;37.42;;
16039;SDS011;8124;48.634;8.120;2023-02-21T13:45:51;41.78;;;36.92;;
16039;SDS011;8124;48.634;8.120;2023-02-21T13:50:56;43.47;;;37.72;;
16039;SDS011;8124;48.634;8.120;2023-02-21T14:01:43;44.35;;;38.40;;
16039;SDS011;8124;48.634;8.120;2023-02-21T14:06:54;44.00;;;38.20;;
16039;SDS011;8124;48.634;8.120;2023-02-21T14:11:58;44.53;;;37.88;;
16039;SDS011;8124;48.634;8.120;2023-02-21T14:17:05;42.38;;;36.83;;
16039;SDS011;8124;48.634;8.120;2023-02-21T14:22:13;42.85;;;36.72;;
16039;SDS011;8124;48.634;8.120;2023-02-21T14:27:30;41.97;;;36.97;;
16039;SDS011;8124;48.634;8.120;2023-02-21T14:32:40;44.33;;;37.58;;
16039;SDS011;8124;48.634;8.120;2023-02-21T14:37:51;44.72;;;36.70;;
16039;SDS011;8124;48.634;8.120;2023-02-21T14:43:00;42.22;;;37.05;;
16039;SDS011;8124;48.634;8.120;2023-02-21T14:59:37;43.33;;;36.40;;
16039;SDS011;8124;48.634;8.120;2023-02-21T15:04:53;41.25;;;35.63;;
16039;SDS011;8124;48.634;8.120;2023-02-21T15:10:12;42.15;;;36.15;;
16039;SDS011;8124;48.634;8.120;2023-02-21T15:15:19;40.45;;;35.97;;
16039;SDS011;8124;48.634;8.120;2023-02-21T15:20:25;42.22;;;36.10;;
16039;SDS011;8124;48.634;8.120;2023-02-21T15:25:31;40.10;;;35.53;;
16039;SDS011;8124;48.634;8.120;2023-02-21T15:30:35;41.90;;;35.88;;
16039;SDS011;8124;48.634;8.120;2023-02-21T15:35:42;45.17;;;36.72;;
16039;SDS011;8124;48.634;8.120;2023-02-21T15:40:51;44.92;;;36.10;;
16039;SDS011;8124;48.634;8.120;2023-02-21T15:45:57;41.00;;;35.70;;
16039;SDS011;8124;48.634;8.120;2023-02-21T15:51:03;40.47;;;35.58;;
16039;SDS011;8124;48.634;8.120;2023-02-21T15:56:19;39.50;;;35.05;;
16039;SDS011;8124;48.634;8.120;2023-02-21T16:01:24;39.92;;;35.22;;
16039;SDS011;8124;48.634;8.120;2023-02-21T16:06:27;45.58;;;37.08;;
16039;SDS011;8124;48.634;8.120;2023-02-21T16:11:40;42.85;;;36.03;;
16039;SDS011;8124;48.634;8.120;2023-02-21T16:16:46;40.60;;;35.53;;
16039;SDS011;8124;48.634;8.120;2023-02-21T16:22:08;40.33;;;34.97;;
16039;SDS011;8124;48.634;8.120;2023-02-21T16:27:14;42.25;;;35.67;;
16039;SDS011;8124;48.634;8.120;2023-02-21T16:32:18;40.10;;;35.47;;
16039;SDS011;8124;48.634;8.120;2023-02-21T16:37:22;42.15;;;35.50;;
16039;SDS011;8124;48.634;8.120;2023-02-21T16:42:29;41.33;;;36.75;;
16039;SDS011;8124;48.634;8.120;2023-02-21T16:47:32;41.15;;;36.22;;
16039;SDS011;8124;48.634;8.120;2023-02-21T16:52:35;42.40;;;36.53;;
16039;SDS011;8124;48.634;8.120;2023-02-21T16:57:39;43.33;;;36.95;;
16039;SDS011;8124;48.634;8.120;2023-02-21T17:02:42;42.55;;;37.72;;
16039;SDS011;8124;48.634;8.120;2023-02-21T17:07:45;43.35;;;38.53;;
16039;SDS011;8124;48.634;8.120;2023-02-21T17:12:49;41.45;;;36.33;;
16039;SDS011;8124;48.634;8.120;2023-02-21T17:17:52;42.20;;;36.55;;
16039;SDS011;8124;48.634;8.120;2023-02-21T17:22:55;41.42;;;36.72;;
16039;SDS011;8124;48.634;8.120;2023-02-21T17:28:01;44.38;;;36.75;;
16039;SDS011;8124;48.634;8.120;2023-02-21T17:33:04;44.40;;;37.03;;
16039;SDS011;8124;48.634;8.120;2023-02-21T17:38:08;39.70;;;35.40;;
16039;SDS011;8124;48.634;8.120;2023-02-21T17:43:13;43.17;;;36.03;;
16039;SDS011;8124;48.634;8.120;2023-02-21T17:48:16;40.47;;;35.85;;
16039;SDS011;8124;48.634;8.120;2023-02-21T17:53:19;43.20;;;36.58;;
16039;SDS011;8124;48.634;8.120;2023-02-21T17:58:24;42.33;;;37.13;;
16039;SDS011;8124;48.634;8.120;2023-02-21T18:03:27;40.10;;;35.35;;
16039;SDS011;8124;48.634;8.120;2023-02-21T18:08:30;40.28;;;35.88;;
16039;SDS011;8124;48.634;8.120;2023-02-21T18:13:34;43.83;;;35.58;;
16039;SDS011;8124;48.634;8.120;2023-02-21T18:18:37;40.55;;;36.05;;
16039;SDS011;8124;48.634;8.120;2023-02-21T18:23:41;39.72;;;35.38;;
16039;SDS011;8124;48.634;8.120;2023-02-21T18:28:46;39.90;;;35.00;;
16039;SDS011;8124;48.634;8.120;2023-02-21T18:33:49;39.35;;;35.05;;
16039;SDS011;8124;48.634;8.120;2023-02-21T18:38:52;40.30;;;35.85;;
16039;SDS011;8124;48.634;8.120;2023-02-21T18:43:56;43.10;;;36.90;;
16039;SDS011;8124;48.634;8.120;2023-02-21T18:48:59;40.10;;;35.70;;
16039;SDS011;8124;48.634;8.120;2023-02-21T18:54:02;40.45;;;35.08;;
16039;SDS011;8124;48.634;8.120;2023-02-21T18:59:06;40.10;;;35.42;;
16039;SDS011;8124;48.634;8.120;2023-02-21T19:04:10;44.17;;;37.80;;
16039;SDS011;8124;48.634;8.120;2023-02-21T19:09:13;47.95;;;38.97;;
16039;SDS011;8124;48.634;8.120;2023-02-21T19:14:18;47.00;;;37.83;;
16039;SDS011;8124;48.634;8.120;2023-02-21T19:19:20;51.50;;;38.25;;
16039;SDS011;8124;48.634;8.120;2023-02-21T19:24:24;57.50;;;39.42;;
16039;SDS011;8124;48.634;8.120;2023-02-21T19:29:42;51.60;;;39.50;;
16039;SDS011;8124;48.634;8.120;2023-02-21T19:34:45;41.90;;;36.20;;
16039;SDS011;8124;48.634;8.120;2023-02-21T19:39:50;40.70;;;35.10;;
16039;SDS011;8124;48.634;8.120;2023-02-21T19:44:54;46.15;;;37.47;;
16039;SDS011;8124;48.634;8.120;2023-02-21T19:49:57;45.10;;;38.03;;
16039;SDS011;8124;48.634;8.120;2023-02-21T19:55:00;44.22;;;37.58;;
16039;SDS011;8124;48.634;8.120;2023-02-21T20:00:05;48.22;;;38.85;;
16039;SDS011;8124;48.634;8.120;2023-02-21T20:05:11;43.13;;;36.05;;
16039;SDS011;8124;48.634;8.120;2023-02-21T20:10:14;43.30;;;36.88;;
16039;SDS011;8124;48.634;8.120;2023-02-21T20:15:20;40.72;;;35.97;;
16039;SDS011;8124;48.634;8.120;2023-02-21T20:20:23;40.05;;;34.97;;
16039;SDS011;8124;48.634;8.120;2023-02-21T20:25:26;39.10;;;34.40;;
16039;SDS011;8124;48.634;8.120;2023-02-21T20:30:34;43.17;;;35.90;;
16039;SDS011;8124;48.634;8.120;2023-02-21T20:35:38;42.95;;;37.05;;
16039;SDS011;8124;48.634;8.120;2023-02-21T20:40:40;43.33;;;36.17;;
16039;SDS011;8124;48.634;8.120;2023-02-21T20:45:46;42.50;;;35.97;;
16039;SDS011;8124;48.634;8.120;2023-02-21T20:50:49;42.30;;;37.03;;
16039;SDS011;8124;48.634;8.120;2023-02-21T20:55:52;41.20;;;36.00;;
16039;SDS011;8124;48.634;8.120;2023-02-21T21:00:56;40.17;;;34.97;;
16039;SDS011;8124;48.634;8.120;2023-02-21T21:06:00;39.17;;;34.83;;
16039;SDS011;8124;48.634;8.120;2023-02-21T21:11:03;40.60;;;36.20;;
16039;SDS011;8124;48.634;8.120;2023-02-21T21:16:10;41.53;;;35.97;;
16039;SDS011;8124;48.634;8.120;2023-02-21T21:21:13;43.38;;;36.85;;
16039;SDS011;8124;48.634;8.120;2023-02-21T21:26:16;41.78;;;36.08;;
16039;SDS011;8124;48.634;8.120;2023-02-21T21:31:20;41.28;;;35.53;;
16039;SDS011;8124;48.634;8.120;2023-02-21T21:36:24;42.08;;;35.90;;
16039;SDS011;8124;48.634;8.120;2023-02-21T21:41:28;39.88;;;34.85;;
16039;SDS011;8124;48.634;8.120;2023-02-21T21:46:34;39.08;;;34.75;;
16039;SDS011;8124;48.634;8.120;2023-02-21T21:51:39;39.30;;;35.00;;
16039;SDS011;8124;48.634;8.120;2023-02-21T21:56:43;40.15;;;35.25;;
16039;SDS011;8124;48.634;8.120;2023-02-21T22:01:47;39.42;;;35.17;;
16039;SDS011;8124;48.634;8.120;2023-02-21T22:06:50;39.72;;;35.42;;
16039;SDS011;8124;48.634;8.120;2023-02-21T22:11:52;40.38;;;35.35;;
16039;SDS011;8124;48.634;8.120;2023-02-21T22:16:57;39.05;;;34.85;;
16039;SDS011;8124;48.634;8.120;2023-02-21T22:22:00;38.70;;;34.53;;
16039;SDS011;8124;48.634;8.120;2023-02-21T22:27:08;39.00;;;34.80;;
16039;SDS011;8124;48.634;8.120;2023-02-21T22:32:12;40.15;;;34.78;;
16039;SDS011;8124;48.634;8.120;2023-02-21T22:37:16;39.30;;;35.05;;
16039;SDS011;8124;48.634;8.120;2023-02-21T22:42:21;38.45;;;34.28;;
16039;SDS011;8124;48.634;8.120;2023-02-21T22:47:25;39.10;;;34.83;;
16039;SDS011;8124;48.634;8.120;2023-02-21T22:52:28;39.10;;;34.78;;
16039;SDS011;8124;48.634;8.120;2023-02-21T22:57:32;40.35;;;35.00;;
16039;SDS011;8124;48.634;8.120;2023-02-21T23:02:37;38.30;;;34.20;;
16039;SDS011;8124;48.634;8.120;2023-02-21T23:07:40;38.70;;;34.50;;
16039;SDS011;8124;48.634;8.120;2023-02-21T23:12:43;38.63;;;34.53;;
16039;SDS011;8124;48.634;8.120;2023-02-21T23:17:49;39.00;;;34.60;;
16039;SDS011;8124;48.634;8.120;2023-02-21T23:22:53;38.65;;;34.50;;
16039;SDS011;8124;48.634;8.120;2023-02-21T23:27:58;39.10;;;34.88;;
16039;SDS011;8124;48.634;8.120;2023-02-21T23:33:06;39.40;;;34.80;;
16039;SDS011;8124;48.634;8.120;2023-02-21T23:38:10;39.55;;;34.83;;
16039;SDS011;8124;48.634;8.120;2023-02-21T23:43:16;39.28;;;35.03;;
16039;SDS011;8124;48.634;8.120;2023-02-21T23:48:21;38.92;;;34.53;;
16039;SDS011;8124;48.634;8.120;2023-02-21T23:53:24;38.90;;;34.70;;
16039;SDS011;8124;48.634;8.120;2023-02-21T23:58:29;38.95;;;34.50;;
